JOCKEYS / KH.MAHFOUDH
Nom : KH.MAHFOUDH
Partant : 982
1er : 110
2éme : 155
3éme : 146
4éme : 117
5éme : 100
LES DERNIÈRES PERFORMANCES
DATE
CHEVAUX
DISTANCE
RANG
TEMPS
ENTRAINEURS
GAGNE
  27/06/2012 CHOUROUK ESSALEM 1200 m - N. GHABRI -  
  27/06/2012 CHERIF ACL 1200 m - N. GHABRI -  
  27/06/2012 BASMET AL ADIAT 1400 m - N. GHABRI -  
  27/06/2012 TOUNISSI EL ASL 1400 m - N. GHABRI -  
  24/06/2012 BAKLOUTI 2000 m - T.HAFFAR -  
  24/06/2012 AALIA 2000 m - M. LAHBIBI -  
  24/06/2012 CHAAER 1600 m 2 2 l S.BEJAOUI 4400DT  
  24/06/2012 CHEIKH JLASS 1600 m - T.HAFFAR -  
  24/06/2012 ANOUAR 1600 m 5 1.5 l S.BEJAOUI 1250DT  
  20/06/2012 BAHEEJ 1400 m 3 2,5l N. GHABRI 440DT  
  20/06/2012 BASMET AL ADIAT 1400 m 5 Loin N. GHABRI 200DT  
  20/06/2012 S'HAB 1400 m - MED.B.ALI -  
  20/06/2012 OUAQF 1600 m 4 4l MED.B.ALI 280DT  
  17/06/2012 CHABCHOUB EL ARAB 1700 m - MED.B.ALI -  
  17/06/2012 CHAACHABOUNA 1700 m 1 2'05"8/10 MED.B.ALI 2200DT  
  17/06/2012 TITLIS 1200 m 6 5 l CH.ALIBI -  
  17/06/2012 AZIZAT AL BADR 1200 m 1 1'25"5/10 S. MAROUANE 2200DT  
  17/06/2012 CHAFAR 1400 m 6 8 l N. GHABRI -  
  10/06/2012 CHABCHOUB EL ARAB 1600 m 3 2 l MED.B.ALI 825DT  
  10/06/2012 ASSARIY'A 1600 m 1 1'55"1/10 MED.B.ALI 4125DT  
  27/05/2012 BAHRAJ AL BADR 2000 m - J. M'KADEM -  
  27/05/2012 NASSIM 2000 m - A.B.JAAFAR -  
  27/05/2012 CHAKIF 1600 m - F. HEDHLI -  
  27/05/2012 ALLEA EYES 2200 m - M. LAHBIBI -  
  27/05/2012 BAHRAJENE 1600 m - AMOR DRIDI -  
  26/05/2012 AMBRATOUR 1600 m 1 1'56"4/10 A.B.JAAFAR 2200DT  
  26/05/2012 ZAHR EL NOUR 2000 m - N. GHABRI -  
  26/05/2012 CHAALEN 1600 m 6 loin F. HEDHLI -  
  20/05/2012 BECHFA 2000 m 6 6 l A.B.JAAFAR -  
  20/05/2012 CHAMCHOUM EL ARB 1400 m 5 8 l N.OUAHRANI 200DT  
  20/05/2012 BADR 1600 m - A.B.JAAFAR -  
  13/05/2012 AMBRATOUR 2000 m 3 2 l A.B.JAAFAR 440DT  
  13/05/2012 BINT EDDOUAR 2000 m 2 3 l ALI HAJERI 880DT  
  13/05/2012 CHALDORAN 1400 m - M.S.BACCOUCHE -  
  13/05/2012 BAYRAM AL BADR 1400 m - J. M'KADEM -  
  13/05/2012 CHOKLATA 1400 m 6 4 l M.S.BACCOUCHE -  
  13/05/2012 CHEYLA ERRAYA 1400 m 4 6 l N. GHABRI 280DT  
  06/05/2012 BAHRAJ AL BADR 2000 m 5 3/4 l J. M'KADEM 600DT  
  06/05/2012 AALIA 1600 m - M. LAHBIBI -  
  06/05/2012 JEFF 1600 m - A.B.HASSINE -  
  06/05/2012 MA CONTESSE 1600 m 4 5 l F. HEDHLI 1450DT  
  06/05/2012 BINT FATMA 2000 m 4 1.5 l A.B.JAAFAR 840DT  
  06/05/2012 CHARGUIA 1600 m 6 loin AMOR DRIDI -  
  06/05/2012 CHAKIF 1600 m 5 10 l F. HEDHLI 600DT  
  04/05/2012 BADIS 1200 m 4 1.5l S.BEJAOUI 280DT  
  04/05/2012 CHAMCHOUM 1600 m 2 1.5l F. HEDHLI 1080DT  
  04/05/2012 BAYRAM AL BADR 1600 m 5 J. M'KADEM 200DT  
  04/05/2012 FLAME FEERIQUE 2000 m 2 8l M.HAMRAOUI 990DT  
  29/04/2012 BOSTEN ERROUH 2000 m 5 1/2 l T.BEN ALI 225DT  
  29/04/2012 CHOUROU 1400 m 6 1 l T.BEN ALI -  
  29/04/2012 CHABIBET EL OUNSS 1400 m - Y. GHABRI -  
  29/04/2012 SGHAIER 1600 m 3 Enc A.B.HASSINE 1320DT  
  29/04/2012 BINT ABIDA 1200 m 2 1 l T.BEN ALI 880DT  
  29/04/2012 CHAKIF 1400 m - AMOR DRIDI -  
  29/04/2012 NASSIM 1700 m 3 4 l A.B.JAAFAR 440DT  
  22/04/2012 CHAHDA 1600 m - M.HAMRAOUI -  
  22/04/2012 KALIMANJARO 2000 m 3 TETE J. M'KADEM 1320DT  
  22/04/2012 CHAHIRA 1400m 6 6 l M.HAMRAOUI -  
  22/04/2012 FALCON CREEK 1700 m 5 loin S.BEJAOUI 200DT  
  20/04/2012 BOSTEN ERROUH 1800 m 2 6l T.BEN ALI 990DT  
  20/04/2012 BADR EL KARIM 1800 m - Y. GHABRI -  
  20/04/2012 AALIA 1800 m 1 2'08"6/10 M. LAHBIBI 2200DT  
  20/04/2012 BAHRANE 1200 m - Y. GHABRI -  
  20/04/2012 FLAME FEERIQUE 1800 m 1 2'03"3/10 M.HAMRAOUI 2200DT  
  15/04/2012 TIGER 2100 m - F. HEDHLI -  
  15/04/2012 BAHRAJENE 2000 m - AMOR DRIDI -  
  15/04/2012 TIRAZ 2000 m 3 2 l MED.B.ALI 1320DT  
  15/04/2012 VENT DU NORD 1600 m 4 loin M.HAMRAOUI 840DT  
  15/04/2012 CHAALEN 1600 m 1 1'55"2/10 F. HEDHLI 4125DT  
  15/04/2012 HAPPY MELODY 1600 m 2 CT MED.B.ALI 2640DT  
  13/04/2012 BAHRANE 1800 - Y. GHABRI -  
  13/04/2012 ASSABOUK 1800 6 1l M. LAHBIBI -  
  13/04/2012 CHARGUIA 1400 - AMOR DRIDI -  
  13/04/2012 ACIL AL BADIA 1200 - N. GHABRI -  
  13/04/2012 CH'BAYEH 1400 2 enc N.OUAHRANI 880DT  
  13/04/2012 TAIR 1400 4 2l TAHAR TRIFI 280DT  
  08/04/2012 BOSTEN ERROUH 1600 m 6 1l T.BEN ALI -  
  08/04/2012 FLAME FEERIQUE 2000 m 1 2'21"6/10 M.HAMRAOUI 2200DT  
  08/04/2012 CHAHDA 1400 m 5 9l M.HAMRAOUI 600DT  
  08/04/2012 CHOUROU 1400 m 6 ct T.BEN ALI -  
  08/04/2012 FALCON CREEK 1600 m 5 8l S.BEJAOUI 200DT  
  08/04/2012 JEFF 1600 m 2 loin A.B.HASSINE 880DT  
  06/04/2012 AALIA 1800 m 4 1l M. LAHBIBI 315DT  
  06/04/2012 ALIM 1800 m - A.B.HASSINE -  
  06/04/2012 CHIBL ESSALEM 1400 m - A.B.HASSINE -  
  06/04/2012 TAIR 1200 m 2 4l TAHAR TRIFI 880DT  
  01/04/2012 Z'HAIRA 1400 m 1 1'38"6/10 M.NEFZI 4125DT  
  01/04/2012 KALIMANJARO 2000 m 2 1/2l J. M'KADEM 1650DT  
  01/04/2012 OUALAW 1600 m - MED.B.ALI -  
  01/04/2012 CHAMCHOUM 1400 m 1 1'40"1/10 F. HEDHLI 4125DT  
  25/03/2012 BAKLOUTI 1600 m - T.HAFFAR -  
  25/03/2012 CHAALEN 1400 m 3 4l F. HEDHLI 440DT  
  25/03/2012 GOOD DANKA 1400 m 2 5 l A.CHARNI 2640DT  
  25/03/2012 BORHANE 2000 m 4 2 l M.MAHERZI 1750DT  
  25/03/2012 AMIRAT AL BADR 1600 m - ALI HAJERI -  
  25/03/2012 CHIAM AL BADR 1400 m - T.BEN ALI -  
  25/03/2012 BAHRAJENE 1600 m 4 5 l AMOR DRIDI 525DT  
  23/03/2012 BOSTEN ERROUH 1400 m 1 1'35"3/10 T.BEN ALI 2200DT  
  23/03/2012 BINT ABIDA 1400 m 5 1l T.BEN ALI 200DT  
  23/03/2012 AZAMOUR 1800 m 1 2'18"6/10 MED.B.ALI 2200DT  
  23/03/2012 AALIA 1800 m 3 1/2l M. LAHBIBI 440DT  
  18/03/2012 BAROONI 2000 m 6 S. MAROUANE -  
  18/03/2012 CHAHLOUL EL ASL 1600 m 4 loin AMOR DRIDI 840DT  
  18/03/2012 CLASSICAL GIRL 1600 m 2 3.5 l A.CHARNI 2640DT  
  18/03/2012 CHAMCHOUM 1400m 3 1.5 l F. HEDHLI 660DT  
  18/03/2012 ACTEUR 1600 m 1 1'45"4/10 A.CHARNI 2200DT  
  11/03/2012 BOURAK AL BADR 1600 m 5 6 l J. M'KADEM 200DT  
  11/03/2012 CHAALEN 1600 m - FATEH HEDHLI -  
  11/03/2012 BINT ABIDA 1600 m - T.BEN ALI -  
  11/03/2012 CHAFAR 1200 m 2 5 l N. GHABRI 880DT  
  04/03/2012 BORHANE 2000 m 2 8 l M.MAHERZI 2640DT  
  04/03/2012 BARAA 2000 m 4 1/2 l MED.B.ALI 840DT  
  04/03/2012 SONG OF VESUVIES 1600 m 3 loin A.CHARNI 1320DT  
  04/03/2012 ASSARIY'A 1600 m - A.CHARNI -  
  04/03/2012 AL ADIYET 1600 m - J. M'KADEM -  
  04/03/2012 ENERRAMO 1600 m 3 loin A.CHARNI 825DT  
  04/03/2012 CHARGUIA 1200 m 3 7 l AMOR DRIDI 440DT  
  26/02/2012 SERRI 1600 m 3 6 l CH.ALIBI 1320DT  
  26/02/2012 ACTEUR 1200 m 3 1/2 l A.CHARNI 1320DT  
  26/02/2012 ACHEM 1600 m 4 1.5 l CH.ALIBI 280DT  
  26/02/2012 BINT BILADI 1700 m - AMOR DRIDI -  
  26/02/2012 CHARGUIA 1400 m 3 1 l AMOR DRIDI 1320DT  
  26/02/2012 CHOUKOUK 1400 m 5 loin CH.ALIBI 600DT  
  19/02/2012 BAHR 2000 m 6 1 l CH.ALIBI -  
  19/02/2012 SERRI 1400m 3 6l CH.ALIBI 495DT  
  19/02/2012 CHAMCHOUM 1400m 1 1'37"5/10 AMOR DRIDI 2200DT  
  19/02/2012 BINT BILADI 2000 m - AMOR DRIDI -  
  19/02/2012 ZOUFAR 2000 m 3 1 l M.MAROUANE 495DT  
  12/02/2012 BERLINE 1600 m - S.BEJAOUI -  
  12/02/2012 SONG OF VESUVIES 2000 m 4 ct A.CHARNI 840DT  
  12/02/2012 ACHEM 1600 m - CH.ALIBI -  
  12/02/2012 SINDAR BLUE 1600 m 1 1'39"8/10 A.CHARNI 4125DT  
  12/02/2012 CHARGUIA 1400 m 5 2.5l AMOR DRIDI 375DT  
  12/02/2012 CHK. EL KHOUYOUL 1400 m 6 loin ZIED RAJHI -  
  05/02/2012 BALOUMI 1400 m 5 tete AMOR DRIDI 375DT  
  05/02/2012 ENERRAMO 1600 m 4 5l A.CHARNI 525DT  
  05/02/2012 TIRAZ 1400 m - A.CHARNI -  
  05/02/2012 BORJ EL AMRI 1600 m 5 1/2l A.CHARNI 600DT  
  05/02/2012 CHAMCHOUM 1400 m 2 3/4l AMOR DRIDI 880DT  
  05/02/2012 SILVER SENS 1600 m 1 1'46 A.CHARNI 4125DT  
  29/01/2012 ACHEM 2000 m - CH.ALIBI -  
  29/01/2012 BAHEEJ 1700 m - T.BEN ALI -  
  29/01/2012 BOURGHEL 1700 m 6 1l A.B.JAAFAR -  
  29/01/2012 CHARGUIA 1400 m 3 6 l AMOR DRIDI 440DT  
  29/01/2012 CHA. EL JANOUB 1400 m 3 téte A.B.JAAFAR 440DT  
  29/01/2012 ACTEUR 1600 m 2 1.5 l A.CHARNI 880DT  
  22/01/2012 ZAYYEK 1700 m - A.CHARNI -  
  22/01/2012 RIF 1700 m - S. MAROUANE -  
  22/01/2012 STAR FLYER 2000 m 5 1/2 l RIDHA ATTIA 200DT  
  22/01/2012 CAMEROUN 1200 m 3 5 l A.CHARNI 440DT  
  22/01/2012 BAHR 1600 m 2 1.5 l CH.ALIBI 1650DT  
  22/01/2012 GOOD DANKA 1600 m 1 1'47"9/10 A.CHARNI 2200DT  
  15/01/2012 AKEL 2000 m 6 1.5 l M.MAHERZI -  
  15/01/2012 CHAFIA 1200 m 3 2.5 l CH.ALIBI 440DT  
  15/01/2012 BORHANE 1600 m 1 1'54"1/10 M.MAHERZI 2200DT  
  15/01/2012 SONG OF VESUVIES 1600 m 5 2 l A.CHARNI 375DT  
  15/01/2012 RIF 1400m 2 6 l S. MAROUANE 572DT  
  15/01/2012 CHARGUIA 1400m 1 1'42"8/10 AMOR DRIDI 2200DT  
  15/01/2012 CHAKIF 1400m 2 3 l AMOR DRIDI 880DT  
  08/01/2012 AZEYEZ GALBI 1700 m - M. LAHBIBI -  
  08/01/2012 ZEHEK 1600 m 3 1/2 l A.CHARNI 825DT  
  08/01/2012 BAHR 1600 m 1 1'54"1/10 CH.ALIBI 2820DT  
  08/01/2012 CHAMCHOUM 1200 m 5 5 l AMOR DRIDI 200DT  
  08/01/2012 ANOUAR 1600 m 3 téte A.B.JAAFAR 440DT  
  05/01/2012 BOURAK AL BADR 1200 m 5 J. M'KADEM 200DT  
  05/01/2012 BOURGHEL 1400 m 3 A.B.JAAFAR 440DT  
  05/01/2012 CHAFIA 1200 m 4 CH.ALIBI 280DT  
  05/01/2012 CHARGUIA 1400 m 6 AMOR DRIDI -  
  05/01/2012 RIF 1400 m 1 1'39"3/10 S. MAROUANE 1430DT  
  05/01/2012 SINDAR BLUE 1600 m 1 1'47"2/10 A.CHARNI 2200DT  
  31/12/2011 FLYING GRACE 2200 m 5 loin S.BEJAOUI 1500DT  
  31/12/2011 CLASSICAL GIRL 2200 m 5 loin A.CHARNI 1500DT  
  31/12/2011 TIRAZ 2000 m 1 2'24"7/10 A.CHARNI 27500DT  
  31/12/2011 BAHR 1600 m 6 7 l CH.ALIBI -  
  31/12/2011 BAHRAJENE 1600 m 4 1/2 l AMOR DRIDI 1400DT  
  31/12/2011 ZINJIYAT AL BADR 1600 m 6 4 l J. M'KADEM -  
  25/12/2011 BAHRAJ AL BADR 1600 m 2 1 l J. M'KADEM 880DT  
  25/12/2011 BAYRAM AL BADR 1200 m - J. M'KADEM -  
  25/12/2011 MA CONTESSE 1600 m 6 1.5 l AMOR DRIDI -  
  25/12/2011 ALMAS ELKHOUYOUL 1600 m - CH.ALIBI -  
  25/12/2011 BASRA 1600 m 4 1/2 l RIDHA ATTIA 280DT  
  18/12/2011 ZAYYEK 2600 m 5 1 l A.CHARNI 375DT  
  18/12/2011 S'HAB 1400 m 1 1'38"5/10 MED.B.ALI 2820DT  
  18/12/2011 CHAHLOUL EL ASL 1400 m 5 1 l AMOR DRIDI 375DT  
  18/12/2011 CHARGUIA 1400 m 2 8 l AMOR DRIDI 1650DT  
  18/12/2011 AZIZAT AL BADR 1600 m 2 8 l S. MAROUANE 880DT  
  14/12/2011 AZIZAT AL BADR 1400 m - S. MAROUANE -  
  14/12/2011 BOURAK AL BADR 1400 m - J. M'KADEM -  
  11/12/2011 ZINJIYAT AL BADR 1600 m - J. M'KADEM -  
  11/12/2011 ZAFEEN 1600 m 6 3.5 l CH.ALIBI -  
  11/12/2011 BAHR 1400 m 1 1'38" CH.ALIBI 2820DT  
  11/12/2011 BINT BILADI 1400 m - AMOR DRIDI -  
  11/12/2011 ZEHEM ELKHOUYOUL 1400 m 6 1 l AMOR DRIDI -  
  04/12/2011 BAHRAJENE 2000 m 3 2.5 l AMOR DRIDI 825DT  
  04/12/2011 BAHRAJ AL BADR 2000 m 2 2 l J. M'KADEM 1650DT  
  04/12/2011 TOHFAT AMINA 1400 m 5 3/4 l M.MAHERZI 200DT  
  04/12/2011 MA CONTESSE 1600 m 3 3 l AMOR DRIDI 1100DT  
  04/12/2011 TITLIS 1400 m - S. MAROUANE -  
  04/12/2011 CHARGUIA 1200 m 4 3.5 l AMOR DRIDI 280DT  
  27/11/2011 BAHR 1600 m 1 1'54 CH.ALIBI 2475DT  
  27/11/2011 AANOUD AL BADR 1600 m - J. M'KADEM -  
  27/11/2011 FLYING GRACE 2000 m 6 8 l S.BEJAOUI -  
  20/11/2011 TIR EL BORNI 1400 m - S.BEJAOUI -  
  20/11/2011 BATAL AL BADR 1600 m - J. M'KADEM -  
  20/11/2011 BAHRAJENE 1600 m - AMOR DRIDI -  
  13/11/2011 Z'HAIRA 1600 m 1 1'55"5/10 M.NEFZI 4125DT  
  13/11/2011 BAHR 1400 m 3 CT CH.ALIBI 440DT  
  13/11/2011 BALOUMI 1600 m 2 7 l AMOR DRIDI 2200DT  
  13/11/2011 BINT BILADI 1400 m - AMOR DRIDI -  
  13/11/2011 MA CONTESSE 1400 m 3 1 l AMOR DRIDI 825DT  
  10/11/2011 BERLINE 2000M 4 6 l S.BEJAOUI 540DT  
  10/11/2011 TITLIS 1600M 3 5 l S. MAROUANE 660DT  
  10/11/2011 BALMORAL 1600M 2 9 l ZIED ATTIA 1650DT  
  10/11/2011 BASSEM 1600M 6 6 l RIDHA ATTIA -  
  10/11/2011 CHARGUIA 1000M 4 2 l AMOR DRIDI 280DT  
  30/10/2011 ZAWREK ESSALEM 1600 m - S.CHEBIL -  
  30/10/2011 Z'HAIRA 1600 m 4 1 l M.NEFZI 700DT  
  30/10/2011 AKSARAY 1600 m 3 2.5 l ZIED ATTIA 440DT  
  30/10/2011 CHAKIF 1000 m 2 loin AMOR DRIDI 880DT  
  21/10/2011 BATAL AL BADR 1600 m - J. M'KADEM -  
  21/10/2011 BAHRAJENE 1600 m 1 1'56"3/10 AMOR DRIDI 5500DT  
  16/10/2011 BALTAZAR. 2000 m 4 1 l NEFZI MONJI 540DT  
  16/10/2011 BALOUMI 1600 m 3 5 l AMOR DRIDI 1100DT  
  16/10/2011 Z'HAIRA 1600 m 3 Enc M.NEFZI 825DT  
  16/10/2011 CHARGUIA 1000 m 3 3 l AMOR DRIDI 440DT  
  09/10/2011 ZAHR EL NOUR 2000 m 3 3 l N. GHABRI 660DT  
  09/10/2011 BATAL AL BADR 1600 m - J. M'KADEM -  
  09/10/2011 BINT ZARZIS 1600 m - MED.B.ALI -  
  09/10/2011 AZIZET BOUHA 1600 m 4 1.5 l M.MAHERZI 280DT  
  09/10/2011 CHAKIF 1000 m 3 CE AMOR DRIDI 440DT  
  02/10/2011 ACIL AL BADIA 1200 m - N. GHABRI -  
  02/10/2011 SOKRATE 1400 m 2 N N. GHABRI 2200DT  
  02/10/2011 Bey 1400 m - A.BENLAFFA -  
  02/10/2011 TAMMAM 2000 m - N. GHABRI -  
  02/10/2011 BARAKETTE EL KHIR 1400 m - W. NEMRI -  
  25/09/2011 ZAHR EL NOUR 1600 m 1 1'57"9/10 N. GHABRI 2475DT  
  25/09/2011 NUMBER FIVE 1600 m 5 2.5 l AMOR DRIDI -  
  25/09/2011 BATAL AL BADR 1400m 5 1/2 l J. M'KADEM 375DT  
  25/09/2011 AMBER ELLIL 1400m - A.B.JAAFAR -  
  25/09/2011 BAHLAM BIC 1400m - A.B.JAAFAR -  
  18/09/2011 ZAHR EL NOUR 1400m 5 1.5 l N. GHABRI 420DT  
  18/09/2011 ALMAS ELKHOUYOUL 1200m 4 3.5 l MED.B.ALI 525DT  
  18/09/2011 BATAL AL BADR 1400m 2 7 l J. M'KADEM 880DT  
  18/09/2011 BALOUMI 1400m 1 1'42" 8/10 AMOR DRIDI 4125DT  
  18/09/2011 AMBER ELLIL 1200 m 4 2.5 l A.B.JAAFAR 280DT  
  18/09/2011 NUMBER FIVE 1400m 5 1 l AMOR DRIDI -  
  29/07/2011 BATAL AL BADR 2000M 1 2'21"3/10 J. M'KADEM 2200DT  
  29/07/2011 BAHLAWANE AL BADR 2000M 3 5l J. M'KADEM 440DT  
  29/07/2011 AKEL 1400M 2 3l M.MAHERZI 990DT  
  29/07/2011 ALEXANDERTHEBRAVE 1800M 5 2l M. LAHBIBI 200DT  
  29/07/2011 ZEHEM ELKHOUYOUL 1800M - T.HAFFAR -  
  29/07/2011 TRILYA 1200M 2 1l MED.B.ALI 880DT  
  23/07/2011 TOHFAT AMINA 1400M 5 ct M.MAHERZI 200DT  
  23/07/2011 ZEHEM ELKHOUYOUL 1400M - T.HAFFAR -  
  23/07/2011 BACHAR 1200M - S.TORKHANI -  
  23/07/2011 TRILYA 1200M 1 1'20 MED.B.ALI 2200DT  
  23/07/2011 BRAKHA 1400M - MED.B.ALI -  
  16/07/2011 TOHFAT AMINA 2000M - M.MAHERZI -  
  16/07/2011 OUAQF 1400M 1 1'38"2/10 MED.B.ALI 2200DT  
  16/07/2011 AMWAJ 1400M - W. NEMRI -  
  09/07/2011 OUAQF 1400M 2 1/2l MED.B.ALI 880DT  
  09/07/2011 AMIRET CARTHAGE 1800M 5 2l T.BEN ALI 200DT  
  09/07/2011 BAHRANE 1800M 2 5l AMOR DRIDI 572DT  
  09/07/2011 BOUSHAMA 1200M 5 4l Y. GHABRI 200DT  
  09/07/2011 ORMOUZ 1400M - S.RAJHI -  
  02/07/2011 I'M HERE 1800M 5 10l M.KHAZMI 200DT  
  02/07/2011 ZEHEM ELKHOUYOUL 1800M - T.HAFFAR -  
  02/07/2011 BALOUMI 1400M 5 3l S.TORKHANI 200DT  
  02/07/2011 AMIRET CARTHAGE 1400M 3 10l T.BEN ALI 440DT  
  02/07/2011 AMWAJ 1400M - W. NEMRI -  
  02/07/2011 BECHIR 1400M - H.BENLAFFA -  
  25/06/2011 BINT BILADI 1200M - AMOR DRIDI -  
  25/06/2011 BAHRANE 1200M - S.TORKHANI -  
  19/06/2011 TAER ESSALEM 1600M 2 10l S.TORKHANI 1080DT  
  19/06/2011 AMMOUR 2000M 1 2'26"4/10 ALI HAJERI 22000DT  
  19/06/2011 ABSENT MIND 2000M 5 2.5l S.TORKHANI 750DT  
  19/06/2011 ACIL AL BADIA 1600M - N. GHABRI -  
  19/06/2011 Z'HAIRA 2000M 4 2.5l J. M'KADEM 1750DT  
  19/06/2011 BAYECH 1400M 3 7l N. GHABRI 825DT  
  12/06/2011 AALIA 1200M 2 6l ALI HAJERI 880DT  
  12/06/2011 TAER ESSALEM 1600M 2 3.5l S.TORKHANI 1650DT  
  12/06/2011 BASRA 1200M 2 8l M.KHAZMI 880DT  
  12/06/2011 ACHRAF EL HAJJAM 1200M 6 1l ALI HAJERI -  
  12/06/2011 BEIRM MOUBAREK 1600M - A.B.HASSINE -  
  12/06/2011 PARVATI 2000M 1 2'19"5/10 ALI HAJERI 2200DT  
  05/06/2011 AABARNI 1600M - MAATOUGUI -  
  05/06/2011 ARIFA 1600M 5 6l MED.B.ALI 500DT  
  05/06/2011 BAROUD 1600M 6 2l S.TORKHANI -  
  05/06/2011 BAHRAJENE 1600M 2 4l T.HAFFAR 2200DT  
  05/06/2011 TEHERAN 1200M 5 1l N. GHABRI 375DT  
  29/05/2011 SAKB 2000M - N. GHABRI -  
  29/05/2011 ARIFA 2000M - MED.B.ALI -  
  29/05/2011 BADR EZZAMEN 1600M 6 8l N. GHABRI -  
  29/05/2011 ABSENT MIND 2200M 5 1/2l S.TORKHANI 1500DT  
  29/05/2011 ACIL AL BADIA 1600M 4 7l N. GHABRI 700DT  
  22/05/2011 TRILYA 1200M 2 1l MED.B.ALI 990DT  
  22/05/2011 BAHJET NADA 1200M - N. GHABRI -  
  22/05/2011 TOHFAT AMINA 1400M 3 2.5l M.MAHERZI 440DT  
  22/05/2011 BACHA BEY 1600M 3 6l A.B.HASSINE 440DT  
  22/05/2011 RAS LOUSSIF 1600M 2 1/2l N. GHABRI 572DT  
  18/05/2011 RAS LOUSSIF 2000M 2 1/2l N. GHABRI 990DT  
  18/05/2011 BAHRANE 1400M 2 Enc S.TORKHANI 880DT  
  18/05/2011 AL ANOUF 1400M 3 1.5l N. GHABRI 440DT  
  15/05/2011 ZEY ZAMEN 1600M 6 1/2l N. GHABRI -  
  15/05/2011 ABER ETARIK 1600M 6 3.5l M.HAMRAOUI -  
  15/05/2011 BINT BILADI 1400M - M. LAHBIBI -  
  15/05/2011 CHAAL 2000m 3 8l M.S.BACCOUCHE 440DT  
  15/05/2011 AKEL 1400M 4 2l M.MAHERZI 280DT  
  15/05/2011 AZIZET BOUHA 1400M 2 2l M.MAHERZI 880DT  
  08/05/2011 ABSENT MIND 1600M 3 3.5l S.TORKHANI 825DT  
  08/05/2011 SOKRATE 1600M 3 1/2l N. GHABRI 1100DT  
  08/05/2011 BAHRAJENE 1400M 2 2l T.HAFFAR 2200DT  
  08/05/2011 ALEXANDERTHEBRAVE 1600M 5 ALI HAJERI 1000DT  
  08/05/2011 BERIZA 1600M 1 2'03 MED.B.ALI 5500DT  
  08/05/2011 BADR EZZAMEN 1600M 2 5l N. GHABRI 2200DT  
  01/05/2011 TEHERAN 1600M 3 10l N. GHABRI 1100DT  
  01/05/2011 AL MOUTAOUAKEL 2000m 1 2'26"9/10 M.S.BACCOUCHE 5500DT  
  01/05/2011 NUMBER FIVE 1200M - AMOR DRIDI -  
  30/04/2011 ZEY ZAMEN 1400M 6 loin N. GHABRI 300DT  
  30/04/2011 ALI EL MAKAM 1200M 3 3l M.MAHERZI 440DT  
  30/04/2011 ABSENT MIND 2100M 3 4l S.TORKHANI 1650DT  
  30/04/2011 BAHRAJENE 1200M 3 5l T.HAFFAR 825DT  
  30/04/2011 AZIZET BOUHA 1200M 5 4l M.MAHERZI 200DT  
  24/04/2011 ALI EL MAKAM 1200M 4 M.MAHERZI 540DT  
  24/04/2011 SOKRATE 2100M 1 2'36"3/10 N. GHABRI 5500DT  
  24/04/2011 ACIL AL BADIA 1600M - N. GHABRI -  
  24/04/2011 BIGUINE 1600M 3 9l M.MAHERZI 1100DT  
  24/04/2011 BAROUD 1200M 6 5l S.TORKHANI -  
  24/04/2011 SAKB 2000m 1 2'34"3/10 N. GHABRI 3055DT  
  17/04/2011 AL ANOUF 2000m - N. GHABRI -  
  17/04/2011 TOHFAT AMINA 1400M 3 9l M.MAHERZI 825DT  
  17/04/2011 TEHERAN 1200M 5 1.5l N. GHABRI 375DT  
  17/04/2011 SAKB 1700M 4 Enc N. GHABRI 525DT  
  17/04/2011 BACHAR 1400M - T.HAFFAR -  
  17/04/2011 NUMBER FIVE 1600M 3 AMOR DRIDI -  
  16/04/2011 ZEY ZAMEN 2100M 1 2'42"9/10 N. GHABRI 3055DT  
  16/04/2011 BAROUD 1600M 6 5l S.TORKHANI -  
  16/04/2011 ALWAN 2000m 3 3.5l ALI HAJERI 1100DT  
  16/04/2011 ABJAR 2000m 5 Y. GHABRI -  
  16/04/2011 BADR EZZAMEN 1600M 1 2'01"2/10 N. GHABRI 4125DT  
  13/03/2011 ZED 1600M - ALI HAJERI -  
  13/03/2011 SINOLOGIE 1600M 1 1'44"2/10 MED.B.ALI 8250DT  
  06/03/2011 BARAA 1600M 5 1l MED.B.ALI 200DT  
  06/03/2011 TAWJEEH 1600M 6 1/2l MED.B.ALI -  
  06/03/2011 BADR EZZAMEN 1400M 1 1'42"1/10 N. GHABRI 2200DT  
  06/03/2011 NUMBER FIVE 1600M 3 2.5l AMOR DRIDI 825DT  
  05/03/2011 BOUTADI 1600M 4 Enc M.S.BACCOUCHE 280DT  
  05/03/2011 RASSID 2000M - MED.B.ALI -  
  05/03/2011 ACHRAF EL HAJJAM 2000M 5 2.5l ALI HAJERI 375DT  
  27/02/2011 RAMED 2000m 3 1/2l ZIED ATTIA 715DT  
  27/02/2011 ACHRAF EL HAJJAM 1600M 3 10l ALI HAJERI 440DT  
  27/02/2011 AKSARAY 1600M 4 1l M.KHAZMI 525DT  
  27/02/2011 ACHOURA 1600M - M.HAMRAOUI -  
  27/02/2011 BADHRA 1400M 4 loin A.B.JAAFAR 525DT  
  27/02/2011 BAYECH 1400M 2 loin N. GHABRI 1650DT  
  20/02/2011 SINOLOGIE 2000m 2 1.5l MED.B.ALI 3300DT  
  20/02/2011 AL MOUTAOUAKEL 1600M 3 2l M.S.BACCOUCHE 1100DT  
  20/02/2011 BINT FATMA 1400M 2 2l A.B.JAAFAR 880DT  
  20/02/2011 BAYECH 1200M 1 1'28"4/10 N. GHABRI 2200DT  
  12/02/2011 ZAWREK ESSALEM 2000M 5 1/2l S.CHEBIL 455DT  
  12/02/2011 ABID 1600M 4 1.5l Y. GHABRI 280DT  
  12/02/2011 SINOLOGIE 1400M 1 1'28"7/10 MED.B.ALI 4125DT  
  12/02/2011 BOUCHRET EL KHIR 1400M 4 2.5l MED.B.ALI 280DT  
  09/01/2011 SAKB 1600M 4 5l N. GHABRI 525DT  
  09/01/2011 RAYEN 1200M 3 2l J. M'KADEM 440DT  
  09/01/2011 AHLA ZARZIS 1600M 6 loin J. M'KADEM -  
  09/01/2011 BOUSHAMA 1200M - MED.B.ALI -  
  09/01/2011 ZAHR EL OUARD 1200M - T.HAFFAR -  
  02/01/2011 ACHOUAK 1400M 2 2l M.HAMRAOUI 880DT  
  02/01/2011 ZAZIAT AL BADR 1600M - M.HAMRAOUI -  
  02/01/2011 ZAWREK ESSALEM 2000M 2 4l S.CHEBIL 880DT  
  02/01/2011 ADID 1400M 1 1'40"9/10 ALI HAJERI 2200DT  
  02/01/2011 NUMBER FIVE 1600M 6 loin AMOR DRIDI -  
  26/12/2010 ALLAM 1700M - MED.B.ALI -  
  26/12/2010 ALWAAD ESSADEK 1600M 3 1.5l MED.B.ALI -  
  26/12/2010 VERY SPORT 1700M 3 3l MED.B.ALI -  
  26/12/2010 ABESSA 1600M 3 5l M.KHAZMI -  
  19/12/2010 ALMAS ELKHOUYOUL 1400M 5 1.5L MED.B.ALI 180DT  
  19/12/2010 OUAQF 1700M 6 1L MED.B.ALI -  
  19/12/2010 ZOUBARA 2000M 5 LOIN Y. GHABRI 325DT  
  19/12/2010 AAROUS EL MARJA 1400M 3 3.5L MED.B.ALI 396DT  
  19/12/2010 AMIN 1600M 6 10L AMOR DRIDI -  
  19/12/2010 KINAWA 2200M 3 1L M.KHAZMI 495DT  
  15/12/2010 ALA 1400M 2 1L Y. GHABRI 792DT  
  15/12/2010 ZENZIBAR 2000M 4 5L AMOR DRIDI 315DT  
  12/12/2010 LORELAY QUEEN 2100M 2 5L M.KHAZMI 880DT  
  12/12/2010 ZAAZAA 1200M 1 1'25"5/10 MED.B.ALI 3575DT  
  12/12/2010 BOUCHRET EL KHIR 1600M 3 LOIN MED.B.ALI 440DT  
  12/12/2010 ZITOUN 1700M - MED.B.ALI -  
  12/12/2010 BADR EL KARIM 1600M 4 LOIN Y. GHABRI 280DT  
  05/12/2010 NAKKACH 2100M 6 1L MED.B.ALI -  
  05/12/2010 VERY SPORT 1600M 4 5L MED.B.ALI 700DT  
  05/12/2010 ALWAAD ESSADEK 1600M 1 1'54"6/10 MED.B.ALI 5500DT  
  28/11/2010 OUAQF 1200M - MED.B.ALI -  
  28/11/2010 SINOLOGIE 2000M 2 1L MED.B.ALI 6600DT  
  28/11/2010 TAWJEEH 1600M 1 1'55"3/10 MED.B.ALI 5500DT  
  28/11/2010 AMIN 1400M 2 3.5L AMOR DRIDI 572DT  
  28/11/2010 ZELDA 2000M 6 LOIN MED.B.ALI -  
  21/11/2010 AMOUM 2000 - S.BEJAOUI -  
  21/11/2010 NAKKACH 1600 - MED.B.ALI -  
  21/11/2010 TRILYA 1600 6 LOIN MED.B.ALI -  
  14/11/2010 RIF 2000M - MED.B.ALI -  
  14/11/2010 ASSABAKA 1600M 2 2L M.S.BACCOUCHE -  
  14/11/2010 ASSRAR 2000M - MED.B.ALI -  
  14/11/2010 VERY SPORT 1400M 2 Loin MED.B.ALI -  
  07/11/2010 SINOLOGIE 2000M 1 2'14"4/10 MED.B.ALI 9350DT  
  07/11/2010 ZAMALEK 2000M 4 6L M.S.BACCOUCHE 700DT  
  07/11/2010 AL MOUSTAKIM 1600M 1 1'56"3/10 M.S.BACCOUCHE 3575DT  
  07/11/2010 ZAKI 1700M - D.SAADIA -  
  07/11/2010 BERIZA 1400M 2 1.5L MED.B.ALI 880DT  
  31/10/2010 ACHEM 1700M 2 1L J. M'KADEM 880DT  
  31/10/2010 ZINHOUM 2000M 2 3/4L MED.B.ALI 1430DT  
  31/10/2010 AWTAR 1700M - ALI HAJERI -  
  31/10/2010 BADR EL KARIM 1400M 4 5L Y. GHABRI 280DT  
  31/10/2010 TRILYA 1200M - MED.B.ALI -  
  24/10/2010 AWTAR 1600M - ALI HAJERI -  
  24/10/2010 AMOUM 1600M 5 LOIN S.BEJAOUI 500DT  
  24/10/2010 SEDRATY 2000M 6 LOIN S. MAROUANE -  
  17/10/2010 ZELDA 1600M - MED.B.ALI -  
  17/10/2010 AZABACHE 2100M - MED.B.ALI -  
  17/10/2010 RIF 1600M - MED.B.ALI -  
  17/10/2010 AZEYEZ GALBI 1700M 3 7L ALI HAJERI 286DT  
  17/10/2010 ZOUHRA 1600M 5 CT ALI HAJERI 325DT  
  17/10/2010 BAYECH 1200M 4 2L N. GHABRI 280DT  
  10/10/2010 AMOUM 1600M 1 1'56"7/10 S.BEJAOUI 3575DT  
  10/10/2010 AJMIA 1600M - ALI HAJERI -  
  03/10/2010 AKHTOUNI 1400M - M.KHAZMI -  
  03/10/2010 ZINHOUM 1600M 2 5L MED.B.ALI 2200DT  
  03/10/2010 ASTAFENDI 1400M - ALI HAJERI -  
  26/09/2010 OUAQF 1200M - MED.B.ALI -  
  26/09/2010 NAKKACH 1700M 4 7L MED.B.ALI -  
  26/09/2010 ZAHIRA 1600M - MED.B.ALI -  
  26/09/2010 SINOLOGIE 1700M 2 1L MED.B.ALI -  
  26/09/2010 ABBES 1200M - S.BEJAOUI -  
  26/09/2010 AMBER ELLIL 1400M 2 9L T.HAFFAR -  
  26/09/2010 AL YAMAMA 1400M - TAHAR TRIFI -  
  19/09/2010 QUICK 1700M 6 1L MED.B.ALI -  
  19/09/2010 ZINHOUM 1600M 3 4L MED.B.ALI -  
  19/09/2010 ZAAZAA 1400M 1 1’ 38 5/10 MED.B.ALI -  
  12/09/2010 ALMAGRIBIA 1600M - MED.B.ALI -  
  12/09/2010 ZELDA 1600M - MED.B.ALI -  
  05/09/2010 OUAQF 2000 - MED.B.ALI -  
  05/09/2010 ZAAZAA 1200 - MED.B.ALI -  
  05/09/2010 RIF 1600 1 MED.B.ALI -  
  05/09/2010 QUICK 1400 4 1L S.TORKHANI 315DT  
  05/09/2010 ABOUD 1400 5 NEZ RIDHA ATTIA 200DT  
  20/06/2010 AMRA 2000M - A.B.JAAFAR -  
  20/06/2010 ZAZIA 1600M 5 C.TETE AMOR DRIDI 180DT  
  20/06/2010 ROSTOMANI 1200M - A.B.HASSINE -  
  13/06/2010 SINOLOGIE 1700M 3 1L MED.B.ALI 1870DT  
  13/06/2010 ZEHEK 2000 2 8L A.CHARNI 6600DT  
  13/06/2010 SUPER SENS 2200M 6 10L A.CHARNI -  
  13/06/2010 AMBER ELLIL 1700M 3 3L T.HAFFAR 2200DT  
  13/06/2010 ZARGA 2000 - N.OUAHRANI -  
  13/06/2010 ZAKI 1600M - D.SAADIA -  
  06/06/2010 RAS LOUSSIF 2000m 2 1.5L M.HAMRAOUI 1170DT  
  06/06/2010 SIDI THABET 1600m 1 1'54 M.S.BACCOUCHE 3575DT  
  06/06/2010 AMIN 1600m - AMOR DRIDI -  
  06/06/2010 ZAZIA 1400M 2 1.5L AMOR DRIDI 880DT  
  06/06/2010 HELIOS 2100m 3 LOIN A.B.HASSINE 440DT  
  23/05/2010 SARATOGA 2000m 6 CT A.CHARNI -  
  23/05/2010 RIF 1200m 6 TETE MED.B.ALI 325DT  
  23/05/2010 SINOLOGIE 2200m 4 1L MED.B.ALI 2100DT  
  23/05/2010 AZIZETNA 1600m - A.B.JAAFAR -  
  23/05/2010 ANWAR EL KHIL 1600m 5 Loin M.MAHERZI 500DT  
  23/05/2010 AMBER ELLIL 1600m 2 7L T.HAFFAR 2200DT  
  16/05/2010 RAS LOUSSIF 2000m 6 1L M.HAMRAOUI -  
  16/05/2010 ANITRA 1700m - J. M'KADEM -  
  16/05/2010 AL MOUTAWEJ 1700m 3 2.5L A.CHARNI 396DT  
  16/05/2010 ZAKI 1600m 3 1/2 L D.SAADIA 396DT  
  08/05/2010 OUAQF 1600m - MED.B.ALI -  
  08/05/2010 ZAMMEL 1700m - AMOR DRIDI -  
  02/05/2010 SIDI THABET 1600m 1 M.S.BACCOUCHE -  
  02/05/2010 ZAYYEK 1600m 4 1.5L A.CHARNI 700DT  
  02/05/2010 SUPER SENS 1700m 1 1'53 A.CHARNI 13750DT  
  02/05/2010 SARATOGA 1700m 1 1'54'4/10 A.CHARNI 13750DT  
  02/05/2010 AYKALLEM 1200m - A.CHARNI -  
  02/05/2010 AHSSEN MINHOUM 1200m 7 S. MAROUANE -  
  25/04/2010 S'HAB 1600m 2 6L MED.B.ALI 2200DT  
  25/04/2010 AMBER ELLIL 1600m 1 1 592/10 T.HAFFAR 3575DT  
  25/04/2010 ASSABAKA 1600m 2 1L M.S.BACCOUCHE 1430DT  
  18/04/2010 OUAQF 2000m 2 2.5L MED.B.ALI 1170DT  
  18/04/2010 ASSRAR 1400m 4 3.5L MED.B.ALI 252DT  
  18/04/2010 ZOUHAL 2000m 8 MED.B.ALI -  
  18/04/2010 BARBADOS 1600m 4 LOIN M.HAMRAOUI 315DT  
  11/04/2010 ACHOURA 1600m 9 MED.B.ALI -  
  11/04/2010 TRILYA 1700m 8 MED.B.ALI -  
  11/04/2010 SINOLOGIE 1700m 3 1/2L MED.B.ALI 1870DT  
  11/04/2010 PREMIER SENS 1600m 1 1.46.4/10 A.CHARNI 5500DT  
  11/04/2010 CLASSICAL WELL 1600m 2 10L A.CHARNI 2200DT  
  11/04/2010 RAFII 1700m 5 3.5L MED.B.ALI 325DT  
  11/04/2010 AL MOUTAOUAKEL 1600m 5 2.5L M.S.BACCOUCHE 325DT  
  04/04/2010 ZAHIRA 2000m 6 MED.B.ALI -  
  04/04/2010 RASSID 2100m 6 9L MED.B.ALI -  
  04/04/2010 OUAQF 1600m 2 2.5L MED.B.ALI 990DT  
  04/04/2010 AZIZET EDDAR 1400m 4 2L MED.B.ALI 700DT  
  28/03/2010 OUAQF 1700m 5 3.5L MED.B.ALI 200DT  
  28/03/2010 MAGIC SCHOOL 1700m 1 1 529/10 A.CHARNI 3575DT  
  28/03/2010 ALIM 1600m 4 1.5L A.B.JAAFAR 280DT  
  28/03/2010 ZAYZAFOUN 1200m 1 1.25.4/10 M.KHAZMI 1980DT  
  28/03/2010 ZAKETE 1200m 1 1 264/10 M.KHAZMI 1980DT  
  26/03/2010 RIBH 2000m 3 1/2L N. GHABRI 495DT  
  21/03/2010 AZABACHE 2200m 4 1.5L MED.B.ALI 2100DT  
  21/03/2010 ZOUBARA 1600m 5 3/4L S.BEJAOUI 1250DT  
  21/03/2010 GLACON 1400m 6 5L MED.B.ALI -  
  21/03/2010 AMANI 1400m 6 LOIN S.BEJAOUI -  
  21/03/2010 ACIL AL BADIA 1400m 1 1.42.6/10 N. GHABRI 3575DT  
  14/03/2010 ALWAAD ESSADEK 1400m 1 1 355/10 MED.B.ALI 1980DT  
  14/03/2010 ZINJI 2000m 8 W. NEMRI -  
  14/03/2010 OUAQF 1400m 2 4L MED.B.ALI 880DT  
  14/03/2010 ZAMBIA 2000m 5 3L MED.B.ALI 325DT  
  14/03/2010 TEJ 1600m 4 1.5L N. GHABRI 182DT  
  07/03/2010 ZOUHAL 1600m 2 2.5L MED.B.ALI 880DT  
  07/03/2010 ZAHIRA 1600m 6 5L MED.B.ALI -  
  07/03/2010 COUP DE CHANCE 1600m 2 5L MED.B.ALI 880DT  
  28/02/2010 AMBER ELLIL 1400m 3 9L T.HAFFAR 440DT  
  28/02/2010 AZABACHE 2100m 3 LOIN MED.B.ALI 1870DT  
  28/02/2010 ZAGHAREET 2000m 6 2L S.TORKHANI -  
  21/02/2010 TOHFAT AL BADR 1600m 5 TETE RIDHA ATTIA 500DT  
  21/02/2010 OUAQF 1600m 8 MED.B.ALI -  
  21/02/2010 ALIM 1400m 2 2L A.B.JAAFAR 1430DT  
  21/02/2010 KALIMANJARO 2000m 4 1/2l RIDHA ATTIA 455DT  
  14/02/2010 QUICK 2100m 4 7L S.TORKHANI 280DT  
  14/02/2010 ZAHWET EL BEL 2000m 6 4L N. GHABRI -  
  14/02/2010 GLACON 1600m 4 TETE MED.B.ALI 455DT  
  14/02/2010 TAHYAT AL BADR 1600m 3 TETE RIDHA ATTIA 1100DT  
  14/02/2010 AJMAL MOHRAT 1400m 3 6L N. GHABRI 396DT  
  07/02/2010 RIMEL 2600m 6 2L A.B.JAAFAR -  
  07/02/2010 AZABACHE 1600m 2 3L MED.B.ALI 1980DT  
  07/02/2010 ZAHWET EL BEL 1600m 6 1L N. GHABRI -  
  07/02/2010 ASHKALANI 1400m 1 1.37.4/10 A.CHARNI 2200DT  
  31/01/2010 QUICK 2000m 7 S.TORKHANI -  
  31/01/2010 ZAZIA EL MATRIA 1600m 5 2L M.MAHERZI 180DT  
  31/01/2010 AL MACHHOUR 1200m 3 3L N. GHABRI 715DT  
  24/01/2010 LA DUNETTE 2000m 9 M. LAHBIBI -  
  24/01/2010 MOUFADHAL 2000m 8 N. GHABRI -  
  24/01/2010 ZINJI 1600m 5 4L W. NEMRI 500DT  
  03/01/2010 TAHANEE AL BADR 2000m 1 2 329/10 MED.B.ALI 2200DT  
  03/01/2010 QUICK 1700m 4 1L S.TORKHANI 280DT  
  03/01/2010 ZOUHOUR AL BADR 1400m 7 MED.B.ALI -  
  03/01/2010 TAHYAT AL BADR 1600m 2 3.5L S. MAROUANE 1430DT  
  03/01/2010 ZITOUN 1400m 7 ALI HAJERI -  
  03/01/2010 AJMAL MOHRAT 1400m 2 10L N. GHABRI 792DT  
  03/01/2010 ADHAM 1400m 1 1 438/10 A.BENLAFFA 1980DT